createdAt,value
2019-02-23T00:02:27.928Z,86.30
2019-02-23T00:04:58.871Z,86.40
2019-02-23T00:07:29.620Z,86.40
2019-02-23T00:10:00.305Z,86.60
2019-02-23T00:12:31.287Z,86.80
2019-02-23T00:15:02.004Z,87.00
2019-02-23T00:17:32.636Z,87.20
2019-02-23T00:20:03.749Z,87.50
2019-02-23T00:22:59.659Z,87.50
2019-02-23T00:25:30.454Z,87.70
2019-02-23T00:28:01.027Z,87.80
2019-02-23T00:30:31.532Z,88.30
2019-02-23T00:33:02.260Z,88.70
2019-02-23T00:35:32.487Z,89.10
2019-02-23T00:38:02.716Z,89.20
2019-02-23T00:40:33.125Z,89.20
2019-02-23T00:43:03.343Z,89.20
2019-02-23T00:45:33.817Z,88.60
2019-02-23T00:48:04.528Z,87.90
2019-02-23T00:50:35.159Z,86.90
2019-02-23T00:53:05.720Z,86.50
2019-02-23T00:55:36.674Z,86.70
2019-02-23T00:58:07.580Z,86.90
2019-02-23T01:00:38.132Z,87.00
2019-02-23T01:03:09.028Z,86.60
2019-02-23T01:05:39.825Z,86.30
2019-02-23T01:08:10.444Z,86.40
2019-02-23T01:10:41.395Z,86.00
2019-02-23T01:13:12.012Z,85.70
2019-02-23T01:15:42.655Z,85.10
2019-02-23T01:18:13.345Z,84.30
2019-02-23T01:20:44.016Z,84.40
2019-02-23T01:23:33.444Z,84.80
2019-02-23T01:26:04.346Z,83.70
2019-02-23T01:28:35.156Z,83.00
2019-02-23T01:31:05.974Z,83.10
2019-02-23T01:33:36.539Z,83.20
2019-02-23T01:36:07.327Z,82.90
2019-02-23T01:38:37.875Z,83.10
2019-02-23T01:41:08.440Z,82.60
2019-02-23T01:43:39.154Z,81.80
2019-02-23T01:46:09.795Z,81.50
2019-02-23T01:48:40.317Z,81.10
2019-02-23T01:51:11.057Z,81.10
2019-02-23T01:53:41.604Z,80.80
2019-02-23T01:56:12.131Z,80.70
2019-02-23T01:58:43.126Z,80.60
2019-02-23T02:01:13.820Z,81.10
2019-02-23T02:03:44.456Z,81.00
2019-02-23T02:06:15.140Z,80.00
2019-02-23T02:08:46.016Z,79.50
2019-02-23T02:11:17.018Z,80.00
2019-02-23T02:13:47.734Z,79.70
2019-02-23T02:16:18.291Z,79.70
2019-02-23T02:18:48.956Z,79.50
2019-02-23T02:21:19.648Z,79.20
2019-02-23T02:23:50.224Z,79.20
2019-02-23T02:26:21.379Z,78.50
2019-02-23T02:28:52.279Z,78.40
2019-02-23T02:31:23.057Z,78.30
2019-02-23T02:34:05.451Z,77.50
2019-02-23T02:36:36.085Z,76.60
2019-02-23T02:39:14.625Z,77.00
2019-02-23T02:41:45.156Z,77.40
2019-02-23T02:44:15.985Z,77.70
2019-02-23T02:46:47.028Z,78.10
2019-02-23T02:49:17.648Z,77.90
2019-02-23T02:51:48.186Z,78.50
2019-02-23T02:54:18.881Z,76.60
2019-02-23T02:56:49.445Z,76.70
2019-02-23T02:59:20.288Z,75.20
2019-02-23T03:01:50.986Z,75.60
2019-02-23T03:04:21.529Z,74.20
2019-02-23T03:06:52.058Z,74.70
2019-02-23T03:09:22.873Z,74.10
2019-02-23T03:11:53.422Z,73.70
2019-02-23T03:14:23.984Z,73.00
2019-02-23T03:16:54.651Z,72.80
2019-02-23T03:19:25.233Z,72.70
2019-02-23T03:21:55.776Z,71.60
2019-02-23T03:24:26.577Z,71.90
2019-02-23T03:26:57.116Z,71.70
2019-02-23T03:29:27.996Z,70.60
2019-02-23T03:31:58.899Z,71.10
2019-02-23T03:34:29.482Z,71.20
2019-02-23T03:37:00.264Z,71.50
2019-02-23T03:39:30.816Z,71.20
2019-02-23T03:42:01.353Z,71.10
2019-02-23T03:44:32.256Z,70.20
2019-02-23T03:47:02.797Z,69.00
2019-02-23T03:49:33.474Z,69.20
2019-02-23T03:52:04.516Z,68.50
2019-02-23T03:54:35.437Z,69.10
2019-02-23T03:57:06.291Z,69.40
2019-02-23T03:59:37.457Z,67.10
2019-02-23T04:02:08.065Z,67.20
2019-02-23T04:04:38.682Z,66.40
2019-02-23T04:07:09.421Z,67.40
2019-02-23T04:09:39.959Z,65.40
2019-02-23T04:12:10.456Z,66.10
2019-02-23T04:14:41.193Z,65.40
2019-02-23T04:17:11.877Z,64.50
2019-02-23T04:19:42.394Z,64.00
2019-02-23T04:22:13.064Z,64.30
2019-02-23T04:24:43.649Z,63.10
2019-02-23T04:27:23.242Z,62.30
2019-02-23T04:29:53.929Z,61.70
2019-02-23T04:32:24.867Z,62.00
2019-02-23T04:34:55.765Z,62.20
2019-02-23T04:37:26.558Z,62.00
2019-02-23T04:39:57.148Z,60.30
2019-02-23T04:43:07.352Z,61.00
2019-02-23T04:45:37.942Z,61.40
2019-02-23T04:48:08.504Z,59.40
2019-02-23T04:50:39.316Z,58.60
2019-02-23T04:53:09.854Z,58.50
2019-02-23T04:55:40.414Z,56.40
2019-02-23T04:58:11.088Z,56.50
2019-02-23T05:00:44.874Z,56.30
2019-02-23T05:03:34.228Z,56.00
2019-02-23T05:06:04.758Z,55.60
2019-02-23T05:08:35.339Z,53.90
2019-02-23T05:11:06.128Z,53.60
2019-02-23T05:13:36.649Z,53.20
2019-02-23T05:16:07.154Z,53.10
2019-02-23T05:18:37.888Z,53.60
2019-02-23T05:21:08.650Z,54.20
2019-02-23T05:23:39.187Z,54.90
2019-02-23T05:26:09.976Z,54.60
2019-02-23T05:28:40.624Z,54.70
2019-02-23T05:31:11.162Z,53.00
2019-02-23T05:33:42.303Z,53.60
2019-02-23T05:36:12.860Z,53.90
2019-02-23T05:38:43.545Z,53.10
2019-02-23T05:41:14.297Z,53.20
2019-02-23T05:43:44.882Z,52.70
2019-02-23T05:46:15.433Z,54.30
2019-02-23T05:48:46.246Z,51.80
2019-02-23T05:51:16.760Z,51.60
2019-02-23T05:53:47.290Z,51.60
2019-02-23T05:56:18.080Z,51.20
2019-02-23T05:58:48.739Z,51.50
2019-02-23T06:01:19.325Z,51.80
2019-02-23T06:03:50.184Z,52.80
2019-02-23T06:06:20.750Z,52.60
2019-02-23T06:08:51.304Z,52.30
2019-02-23T06:11:22.114Z,52.00
2019-02-23T06:13:52.677Z,50.90
2019-02-23T06:16:23.164Z,50.90
2019-02-23T06:18:54.053Z,51.10
2019-02-23T06:21:25.353Z,51.40
2019-02-23T06:23:56.417Z,51.40
2019-02-23T06:26:27.232Z,51.20
2019-02-23T06:28:58.008Z,49.90
2019-02-23T06:31:28.539Z,49.50
2019-02-23T06:33:59.650Z,49.30
2019-02-23T06:36:30.295Z,49.70
2019-02-23T06:39:00.977Z,49.50
2019-02-23T06:41:31.950Z,49.90
2019-02-23T06:44:04.776Z,48.60
2019-02-23T06:46:35.455Z,49.40
2019-02-23T06:49:06.047Z,49.90
2019-02-23T06:51:36.778Z,49.20
2019-02-23T06:54:07.482Z,49.20
2019-02-23T06:56:38.044Z,48.20
2019-02-23T06:59:08.614Z,47.80
2019-02-23T07:01:39.476Z,48.20
2019-02-23T07:04:10.442Z,47.90
2019-02-23T07:06:41.085Z,47.60
2019-02-23T07:09:12.000Z,48.70
2019-02-23T07:11:42.658Z,48.40
2019-02-23T07:14:13.393Z,48.20
2019-02-23T07:16:44.081Z,48.30
2019-02-23T07:19:14.667Z,48.60
2019-02-23T07:21:45.313Z,47.80
2019-02-23T07:24:15.955Z,47.60
2019-02-23T07:26:46.573Z,47.40
2019-02-23T07:29:17.110Z,47.60
2019-02-23T07:31:47.990Z,47.60
2019-02-23T07:34:18.860Z,48.10
2019-02-23T07:36:49.501Z,47.40
2019-02-23T07:39:20.406Z,47.10
2019-02-23T07:41:51.003Z,48.20
2019-02-23T07:44:21.726Z,48.40
2019-02-23T07:46:52.396Z,47.90
2019-02-23T07:49:23.021Z,48.00
2019-02-23T07:51:53.815Z,47.10
2019-02-23T07:54:24.613Z,47.00
2019-02-23T07:56:55.192Z,47.10
2019-02-23T07:59:25.740Z,46.80
2019-02-23T08:01:56.508Z,46.80
2019-02-23T08:04:27.154Z,47.10
2019-02-23T08:06:58.014Z,47.10
2019-02-23T08:09:28.966Z,46.60
2019-02-23T08:11:59.696Z,46.00
2019-02-23T08:14:30.293Z,46.40
2019-02-23T08:17:01.030Z,46.20
2019-02-23T08:19:31.697Z,47.30
2019-02-23T08:22:02.202Z,47.60
2019-02-23T08:24:32.907Z,47.80
2019-02-23T08:27:03.509Z,47.60
2019-02-23T08:29:34.127Z,47.80
2019-02-23T08:32:04.804Z,47.50
2019-02-23T08:34:35.420Z,48.60
2019-02-23T08:37:06.514Z,48.00
2019-02-23T08:39:37.245Z,47.80
2019-02-23T08:42:07.913Z,47.20
2019-02-23T08:44:38.417Z,47.80
2019-02-23T08:47:09.141Z,47.80
2019-02-23T08:49:41.214Z,47.90
2019-02-23T08:52:14.028Z,48.10
2019-02-23T08:54:44.878Z,48.90
2019-02-23T08:57:15.484Z,48.20
2019-02-23T08:59:46.189Z,47.70
2019-02-23T09:02:16.853Z,47.20
2019-02-23T09:04:47.384Z,47.20
2019-02-23T09:07:18.089Z,48.30
2019-02-23T09:09:48.966Z,48.20
2019-02-23T09:12:19.591Z,48.30
2019-02-23T09:14:50.365Z,48.30
2019-02-23T09:17:20.956Z,48.90
2019-02-23T09:19:51.465Z,48.40
2019-02-23T09:22:22.193Z,49.20
2019-02-23T09:24:52.762Z,48.30
2019-02-23T09:27:23.288Z,49.00
2019-02-23T09:29:53.975Z,48.30
2019-02-23T09:32:24.549Z,48.80
2019-02-23T09:34:55.077Z,49.20
2019-02-23T09:37:25.879Z,49.50
2019-02-23T09:39:56.837Z,49.70
2019-02-23T09:42:27.415Z,49.60
2019-02-23T09:44:58.203Z,49.20
2019-02-23T09:47:28.829Z,50.50
2019-02-23T09:49:59.400Z,50.80
2019-02-23T09:52:29.958Z,50.50
2019-02-23T09:55:00.557Z,50.90
2019-02-23T09:57:31.191Z,50.10
2019-02-23T10:00:01.861Z,50.20
2019-02-23T10:02:32.454Z,51.00
2019-02-23T10:05:02.984Z,50.90
2019-02-23T10:07:33.799Z,51.40
2019-02-23T10:10:04.357Z,51.70
2019-02-23T10:12:35.161Z,52.60
2019-02-23T10:15:13.912Z,52.20
2019-02-23T10:17:44.540Z,52.90
2019-02-23T10:20:15.866Z,53.30
2019-02-23T10:22:46.593Z,53.60
2019-02-23T10:25:17.260Z,53.80
2019-02-23T10:27:47.778Z,53.60
2019-02-23T10:30:18.878Z,53.80
2019-02-23T10:32:49.448Z,54.50
2019-02-23T10:35:20.101Z,55.40
2019-02-23T10:37:50.801Z,56.20
2019-02-23T10:40:23.020Z,56.40
2019-02-23T10:42:54.052Z,56.10
2019-02-23T10:45:24.872Z,56.10
2019-02-23T10:47:55.520Z,56.50
2019-02-23T10:50:26.051Z,57.30
2019-02-23T10:52:57.004Z,57.40
2019-02-23T10:55:27.626Z,57.10
2019-02-23T10:58:06.413Z,57.30
2019-02-23T11:00:37.352Z,58.00
2019-02-23T11:03:08.139Z,58.00
2019-02-23T11:05:38.630Z,58.00
2019-02-23T11:08:09.458Z,58.50
2019-02-23T11:10:39.995Z,59.00
2019-02-23T11:13:10.860Z,58.90
2019-02-23T11:15:41.570Z,59.00
2019-02-23T11:18:12.232Z,59.70
2019-02-23T11:20:42.845Z,60.30
2019-02-23T11:23:13.579Z,61.50
2019-02-23T11:25:44.147Z,64.20
2019-02-23T11:28:14.657Z,64.50
2019-02-23T11:30:45.475Z,65.20
2019-02-23T11:33:16.132Z,65.40
2019-02-23T11:35:46.670Z,65.90
2019-02-23T11:38:17.372Z,66.00
2019-02-23T11:40:48.035Z,66.00
2019-02-23T11:43:18.572Z,66.30
2019-02-23T11:45:49.694Z,65.90
2019-02-23T11:48:20.248Z,65.50
2019-02-23T11:50:50.870Z,67.30
2019-02-23T11:53:21.592Z,66.90
2019-02-23T11:55:52.139Z,67.20
2019-02-23T11:58:22.669Z,67.70
2019-02-23T12:00:53.531Z,67.60
2019-02-23T12:03:24.139Z,67.90
2019-02-23T12:05:55.092Z,68.40
2019-02-23T12:08:25.976Z,68.70
2019-02-23T12:10:56.656Z,69.20
2019-02-23T12:13:27.194Z,69.60
2019-02-23T12:15:58.177Z,70.20
2019-02-23T12:18:28.760Z,70.30
2019-02-23T12:20:59.298Z,70.50
2019-02-23T12:23:29.980Z,70.40
2019-02-23T12:26:00.541Z,71.10
2019-02-23T12:28:31.189Z,71.60
2019-02-23T12:31:01.889Z,72.20
2019-02-23T12:33:32.559Z,72.50
2019-02-23T12:36:03.186Z,72.50
2019-02-23T12:38:34.001Z,73.10
2019-02-23T12:41:04.764Z,73.50
2019-02-23T12:43:35.289Z,73.80
2019-02-23T12:46:06.103Z,73.40
2019-02-23T12:48:36.992Z,73.40
2019-02-23T12:51:08.903Z,73.50
2019-02-23T12:53:39.481Z,73.50
2019-02-23T12:56:10.003Z,73.30
2019-02-23T12:58:40.802Z,73.40
2019-02-23T13:01:11.351Z,73.30
2019-02-23T13:03:42.210Z,72.90
2019-02-23T13:06:12.995Z,73.10
2019-02-23T13:09:17.175Z,73.50
2019-02-23T13:11:50.419Z,73.70
2019-02-23T13:14:58.679Z,73.60
2019-02-23T13:17:55.205Z,74.10
2019-02-23T13:20:40.233Z,73.40
2019-02-23T13:23:16.628Z,73.60
2019-02-23T13:26:07.997Z,73.70
2019-02-23T13:28:47.415Z,74.00
2019-02-23T13:31:35.932Z,73.90
2019-02-23T13:34:21.220Z,73.60
2019-02-23T13:37:01.786Z,73.70
2019-02-23T13:39:43.884Z,73.60
2019-02-23T13:42:39.570Z,73.30
2019-02-23T13:45:18.983Z,73.60
2019-02-23T13:48:04.384Z,73.50
2019-02-23T13:50:47.201Z,73.70
2019-02-23T13:53:39.822Z,74.00
2019-02-23T13:56:30.277Z,74.60
2019-02-23T13:59:18.974Z,75.10
2019-02-23T14:02:13.732Z,76.50
2019-02-23T14:05:09.640Z,76.00
2019-02-23T14:08:00.031Z,76.50
2019-02-23T14:10:43.569Z,77.00
2019-02-23T14:13:19.875Z,77.40
2019-02-23T14:16:15.847Z,78.00
2019-02-23T14:18:52.177Z,78.60
2019-02-23T14:21:59.279Z,79.20
2019-02-23T14:24:38.472Z,79.10
2019-02-23T14:27:29.550Z,79.50
2019-02-23T14:30:15.109Z,79.40
2019-02-23T14:33:07.906Z,79.20
2019-02-23T14:35:56.471Z,79.30
2019-02-23T14:38:53.645Z,79.70
2019-02-23T14:41:46.507Z,79.80
2019-02-23T14:44:42.589Z,80.30
2019-02-23T14:47:16.659Z,80.90
2019-02-23T14:50:06.689Z,81.30
2019-02-23T14:53:02.678Z,81.30
2019-02-23T14:55:57.645Z,81.10
2019-02-23T14:58:52.196Z,81.70
2019-02-23T15:01:25.786Z,81.50
2019-02-23T15:04:10.452Z,80.70
2019-02-23T15:06:56.441Z,80.60
2019-02-23T15:09:48.005Z,80.70
2019-02-23T15:12:48.052Z,81.00
2019-02-23T15:15:39.227Z,81.00
2019-02-23T15:18:34.951Z,80.50
2019-02-23T15:21:20.403Z,79.90
2019-02-23T15:23:59.480Z,79.80
2019-02-23T15:26:38.777Z,79.50
2019-02-23T15:29:27.178Z,79.40
2019-02-23T15:32:30.702Z,79.60
2019-02-23T15:35:10.189Z,80.00
2019-02-23T15:37:53.092Z,80.20
2019-02-23T15:40:45.709Z,80.40
2019-02-23T15:43:37.420Z,80.60
2019-02-23T15:46:19.209Z,80.60
2019-02-23T15:49:09.207Z,80.50
2019-02-23T15:51:39.920Z,80.40
2019-02-23T15:54:11.132Z,80.00
2019-02-23T15:56:42.477Z,79.70
2019-02-23T15:59:13.049Z,79.50
2019-02-23T16:01:44.852Z,79.40
2019-02-23T16:04:15.696Z,79.00
2019-02-23T16:06:46.371Z,78.80
2019-02-23T16:09:17.026Z,78.90
2019-02-23T16:11:47.742Z,79.00
2019-02-23T16:14:18.265Z,79.20
2019-02-23T16:16:50.305Z,79.30
2019-02-23T16:19:20.953Z,79.60
2019-02-23T16:21:52.923Z,79.90
2019-02-23T16:24:24.014Z,79.90
2019-02-23T16:26:54.615Z,79.80
2019-02-23T16:29:25.251Z,79.70
2019-02-23T16:32:12.626Z,79.60
2019-02-23T16:35:06.939Z,79.20
2019-02-23T16:37:37.381Z,79.30
2019-02-23T16:40:08.688Z,79.40
2019-02-23T16:42:39.466Z,79.40
2019-02-23T16:45:11.586Z,79.40
2019-02-23T16:47:42.162Z,79.20
2019-02-23T16:50:12.874Z,79.40
2019-02-23T16:52:43.603Z,79.40
2019-02-23T16:55:14.566Z,79.50
2019-02-23T16:58:05.917Z,79.50
2019-02-23T17:00:36.508Z,79.60
2019-02-23T17:03:07.055Z,79.50
2019-02-23T17:05:37.796Z,79.50
2019-02-23T17:08:08.424Z,79.30
2019-02-23T17:10:39.056Z,79.30
2019-02-23T17:13:09.949Z,79.30
2019-02-23T17:15:40.608Z,79.30
2019-02-23T17:18:11.173Z,79.90
2019-02-23T17:20:41.957Z,79.90
2019-02-23T17:23:12.833Z,79.50
2019-02-23T17:25:43.478Z,79.30
2019-02-23T17:28:14.257Z,79.40
2019-02-23T17:30:45.028Z,79.50
2019-02-23T17:33:15.737Z,79.50
2019-02-23T17:35:46.427Z,79.50
2019-02-23T17:38:17.047Z,79.30
2019-02-23T17:40:47.860Z,79.60
2019-02-23T17:43:18.903Z,79.80
2019-02-23T17:45:49.619Z,79.80
2019-02-23T17:48:20.194Z,80.10
2019-02-23T17:50:51.084Z,80.30
2019-02-23T17:53:21.659Z,80.50
2019-02-23T17:55:52.185Z,80.60
2019-02-23T17:58:23.387Z,80.70
2019-02-23T18:00:53.936Z,80.70
2019-02-23T18:03:24.488Z,82.00
2019-02-23T18:05:55.294Z,81.20
2019-02-23T18:08:25.835Z,81.10
2019-02-23T18:10:56.390Z,81.40
2019-02-23T18:13:27.114Z,81.40
2019-02-23T18:15:57.761Z,81.70
2019-02-23T18:18:28.273Z,82.00
2019-02-23T18:20:59.016Z,82.10
2019-02-23T18:23:30.065Z,82.10
2019-02-23T18:26:00.609Z,82.00
2019-02-23T18:28:31.368Z,81.70
2019-02-23T18:31:01.960Z,81.80
2019-02-23T18:33:32.492Z,81.90
2019-02-23T18:36:03.194Z,82.00
2019-02-23T18:38:33.709Z,82.10
2019-02-23T18:41:04.295Z,82.20
2019-02-23T18:43:34.963Z,82.00
2019-02-23T18:46:05.665Z,82.10
2019-02-23T18:48:36.293Z,82.30
2019-02-23T18:51:07.112Z,82.30
2019-02-23T18:53:37.634Z,82.40
2019-02-23T18:56:08.400Z,82.40
2019-02-23T18:58:39.192Z,82.40
2019-02-23T19:01:10.150Z,82.40
2019-02-23T19:03:40.817Z,82.80
2019-02-23T19:06:11.507Z,82.20
2019-02-23T19:09:02.359Z,82.60
2019-02-23T19:11:33.152Z,83.00
2019-02-23T19:14:03.685Z,83.00
2019-02-23T19:16:34.224Z,83.20
2019-02-23T19:19:04.948Z,83.40
2019-02-23T19:21:35.527Z,83.10
2019-02-23T19:24:06.456Z,83.10
2019-02-23T19:26:38.448Z,82.20
2019-02-23T19:29:09.256Z,81.30
2019-02-23T19:31:39.986Z,81.10
2019-02-23T19:34:10.794Z,81.00
2019-02-23T19:37:35.341Z,81.20
2019-02-23T19:40:08.077Z,81.40
2019-02-23T19:42:38.650Z,81.40
2019-02-23T19:45:11.256Z,81.10
2019-02-23T19:47:43.501Z,81.50
2019-02-23T19:50:26.507Z,81.40
2019-02-23T19:52:57.152Z,80.90
2019-02-23T19:55:27.689Z,81.00
2019-02-23T19:58:46.968Z,80.70
2019-02-23T20:01:17.561Z,80.70
2019-02-23T20:03:48.431Z,80.90
2019-02-23T20:06:19.125Z,81.10
2019-02-23T20:08:49.693Z,81.30
2019-02-23T20:11:20.369Z,81.50
2019-02-23T20:13:50.939Z,81.40
2019-02-23T20:16:21.469Z,81.50
2019-02-23T20:18:52.186Z,82.00
2019-02-23T20:21:22.765Z,81.80
2019-02-23T20:23:53.284Z,81.70
2019-02-23T20:26:24.264Z,81.90
2019-02-23T20:28:54.861Z,81.40
2019-02-23T20:31:25.393Z,81.50
2019-02-23T20:33:56.162Z,81.60
2019-02-23T20:36:26.752Z,81.80
2019-02-23T20:38:57.257Z,82.00
2019-02-23T20:41:27.989Z,82.10
2019-02-23T20:43:58.527Z,81.90
2019-02-23T20:46:29.196Z,81.70
2019-02-23T20:48:59.984Z,81.60
2019-02-23T20:51:30.670Z,81.80
2019-02-23T20:54:01.177Z,82.00
2019-02-23T20:56:31.987Z,81.80
2019-02-23T20:59:02.557Z,82.20
2019-02-23T21:01:33.296Z,82.10
2019-02-23T21:04:04.001Z,82.00
2019-02-23T21:06:34.977Z,82.10
2019-02-23T21:09:05.710Z,82.20
2019-02-23T21:11:36.613Z,82.30
2019-02-23T21:14:07.250Z,82.30
2019-02-23T21:16:37.810Z,82.80
2019-02-23T21:19:08.610Z,82.80
2019-02-23T21:21:39.151Z,82.70
2019-02-23T21:24:09.682Z,83.00
2019-02-23T21:26:40.385Z,83.30
2019-02-23T21:29:11.264Z,83.20
2019-02-23T21:31:41.781Z,83.20
2019-02-23T21:34:12.521Z,83.00
2019-02-23T21:36:43.081Z,83.20
2019-02-23T21:39:13.577Z,82.60
2019-02-23T21:41:44.305Z,82.60
2019-02-23T21:44:14.878Z,82.40
2019-02-23T21:46:45.413Z,82.50
2019-02-23T21:49:16.137Z,82.50
2019-02-23T21:51:46.703Z,82.30
2019-02-23T21:54:36.325Z,82.40
2019-02-23T21:57:06.893Z,82.60
2019-02-23T21:59:37.509Z,82.70
2019-02-23T22:02:08.454Z,82.80
2019-02-23T22:04:39.070Z,83.10
2019-02-23T22:07:10.022Z,83.30
2019-02-23T22:09:40.848Z,83.50
2019-02-23T22:12:11.667Z,83.50
2019-02-23T22:14:42.453Z,83.80
2019-02-23T22:17:13.249Z,83.50
2019-02-23T22:19:43.805Z,83.60
2019-02-23T22:22:14.342Z,84.00
2019-02-23T22:24:45.255Z,83.80
2019-02-23T22:27:15.882Z,83.80
2019-02-23T22:29:46.445Z,84.00
2019-02-23T22:32:17.572Z,84.10
2019-02-23T22:34:48.358Z,84.10
2019-02-23T22:37:18.969Z,84.10
2019-02-23T22:39:49.768Z,84.00
2019-02-23T22:42:20.538Z,83.90
2019-02-23T22:44:51.278Z,84.20
2019-02-23T22:47:21.933Z,84.00
2019-02-23T22:49:52.542Z,84.20
2019-02-23T22:52:22.937Z,84.00
2019-02-23T22:54:55.842Z,83.60
2019-02-23T22:57:26.456Z,83.90
2019-02-23T22:59:57.179Z,83.80
2019-02-23T23:02:27.848Z,83.50
2019-02-23T23:04:58.388Z,83.70
2019-02-23T23:07:29.458Z,84.00
2019-02-23T23:10:00.137Z,84.20
2019-02-23T23:12:31.005Z,84.10
2019-02-23T23:15:01.931Z,84.20
2019-02-23T23:17:32.554Z,84.20
2019-02-23T23:20:03.110Z,84.60
2019-02-23T23:22:33.764Z,84.90
2019-02-23T23:25:04.468Z,84.50
2019-02-23T23:27:35.000Z,84.40
2019-02-23T23:30:06.416Z,84.90
2019-02-23T23:32:46.098Z,85.20
2019-02-23T23:35:17.067Z,85.10
2019-02-23T23:37:47.867Z,85.00
2019-02-23T23:40:18.511Z,85.00
2019-02-23T23:42:57.812Z,85.00
2019-02-23T23:45:21.313Z,84.90
2019-02-23T23:47:51.815Z,84.70
2019-02-23T23:50:22.545Z,84.50
2019-02-23T23:52:53.114Z,84.60
2019-02-23T23:55:23.682Z,84.90
2019-02-23T23:57:58.295Z,85.00
